createdAt,value
2023-01-09T00:04:19.068Z,46.47
2023-01-09T00:09:23.077Z,50.00
2023-01-09T00:14:25.728Z,49.22
2023-01-09T00:20:08.146Z,54.28
2023-01-09T00:25:13.995Z,52.70
2023-01-09T00:30:18.728Z,50.63
2023-01-09T00:35:31.915Z,49.97
2023-01-09T00:40:36.016Z,53.63
2023-01-09T00:45:38.627Z,57.90
2023-01-09T00:50:43.812Z,55.90
2023-01-09T00:55:46.248Z,55.35
2023-01-09T01:00:51.117Z,49.80
2023-01-09T01:06:12.209Z,59.75
2023-01-09T01:11:14.949Z,58.20
2023-01-09T01:16:21.210Z,55.80
2023-01-09T01:21:23.983Z,53.00
2023-01-09T01:26:28.880Z,55.50
2023-01-09T01:31:31.316Z,59.40
2023-01-09T01:36:34.483Z,64.22
2023-01-09T01:41:37.456Z,53.35
2023-01-09T01:46:39.998Z,52.88
2023-01-09T01:51:48.579Z,41.03
2023-01-09T01:56:55.189Z,62.47
2023-01-09T02:02:00.289Z,60.35
2023-01-09T02:07:08.082Z,68.35
2023-01-09T02:12:16.785Z,61.05
2023-01-09T02:17:25.097Z,62.03
2023-01-09T02:22:37.821Z,63.15
2023-01-09T02:27:50.355Z,59.00
2023-01-09T02:33:00.142Z,55.42
2023-01-09T02:38:12.239Z,56.95
2023-01-09T02:43:14.985Z,54.95
2023-01-09T02:48:17.437Z,61.90
2023-01-09T02:53:44.708Z,56.83
2023-01-09T02:59:05.551Z,62.05
2023-01-09T03:04:19.558Z,60.22
2023-01-09T03:14:28.134Z,61.10
2023-01-09T03:19:35.603Z,66.18
2023-01-09T03:24:39.091Z,46.77
2023-01-09T03:29:43.621Z,67.30
2023-01-09T03:34:48.041Z,65.70
2023-01-09T03:40:24.514Z,70.45
2023-01-09T03:45:27.326Z,66.80
2023-01-09T03:51:05.740Z,65.03
2023-01-09T03:56:50.522Z,69.30
2023-01-09T04:01:53.111Z,66.07
2023-01-09T04:07:00.240Z,65.87
2023-01-09T04:12:24.847Z,55.22
2023-01-09T04:17:34.490Z,53.17
2023-01-09T04:22:40.253Z,52.03
2023-01-09T04:27:58.376Z,51.80
2023-01-09T04:38:24.328Z,58.78
2023-01-09T04:43:30.041Z,61.03
2023-01-09T04:48:33.656Z,62.08
2023-01-09T04:54:04.060Z,55.35
2023-01-09T05:05:20.541Z,63.00
2023-01-09T05:10:39.416Z,58.30
2023-01-09T05:15:42.433Z,55.20
2023-01-09T05:20:49.680Z,55.53
2023-01-09T05:26:24.416Z,57.30
2023-01-09T05:31:30.148Z,55.22
2023-01-09T05:36:35.181Z,55.95
2023-01-09T05:41:38.143Z,56.92
2023-01-09T05:46:45.570Z,62.35
2023-01-09T05:51:54.314Z,55.10
2023-01-09T05:56:57.744Z,59.65
2023-01-09T06:02:00.320Z,65.53
2023-01-09T06:07:07.906Z,52.13
2023-01-09T06:12:10.315Z,52.88
2023-01-09T06:17:12.742Z,56.47
2023-01-09T06:22:15.142Z,59.22
2023-01-09T06:27:17.714Z,63.35
2023-01-09T06:32:21.090Z,55.90
2023-01-09T06:37:23.528Z,58.92
2023-01-09T06:42:26.110Z,57.25
2023-01-09T06:47:28.535Z,51.97
2023-01-09T06:52:30.992Z,57.05
2023-01-09T06:57:33.418Z,65.65
2023-01-09T07:02:36.030Z,63.15
2023-01-09T07:07:40.360Z,66.68
2023-01-09T07:12:42.984Z,66.43
2023-01-09T07:17:45.475Z,83.50
2023-01-09T07:22:47.954Z,79.35
2023-01-09T07:27:54.622Z,78.30
2023-01-09T07:32:59.456Z,71.28
2023-01-09T07:38:02.276Z,63.30
2023-01-09T07:43:04.733Z,45.33
2023-01-09T07:48:07.350Z,59.53
2023-01-09T07:53:09.703Z,59.00
2023-01-09T07:58:12.070Z,59.58
2023-01-09T08:03:14.481Z,77.90
2023-01-09T08:08:17.235Z,66.47
2023-01-09T08:13:20.724Z,50.00
2023-01-09T08:18:23.109Z,53.30
2023-01-09T08:23:25.603Z,57.17
2023-01-09T08:28:28.072Z,55.80
2023-01-09T08:33:32.601Z,58.95
2023-01-09T08:38:35.317Z,55.35
2023-01-09T08:43:56.896Z,58.13
2023-01-09T08:48:59.275Z,58.17
2023-01-09T08:54:03.715Z,56.17
2023-01-09T08:59:06.165Z,62.00
2023-01-09T09:04:08.715Z,53.97
2023-01-09T09:09:11.661Z,59.65
2023-01-09T09:14:34.789Z,47.65
2023-01-09T09:19:39.800Z,57.53
2023-01-09T09:24:47.492Z,59.10
2023-01-09T09:29:50.119Z,61.08
2023-01-09T09:34:52.696Z,56.55
2023-01-09T09:39:56.777Z,58.42
2023-01-09T09:45:36.193Z,51.88
2023-01-09T09:51:21.921Z,47.88
2023-01-09T09:56:34.384Z,61.95
2023-01-09T10:01:55.959Z,65.85
2023-01-09T10:07:06.730Z,64.45
2023-01-09T10:12:29.592Z,65.72
2023-01-09T10:17:57.388Z,68.90
2023-01-09T10:23:26.109Z,67.22
2023-01-09T10:28:53.765Z,69.75
2023-01-09T10:34:28.201Z,69.30
2023-01-09T10:40:07.981Z,67.65
2023-01-09T10:45:26.721Z,62.53
2023-01-09T10:51:10.231Z,63.80
2023-01-09T10:57:00.610Z,64.83
2023-01-09T11:02:35.332Z,54.90
2023-01-09T11:08:36.835Z,59.70
2023-01-09T11:14:06.782Z,58.75
2023-01-09T11:19:44.958Z,49.28
2023-01-09T11:25:20.477Z,55.53
2023-01-09T11:31:04.069Z,64.45
2023-01-09T11:36:43.092Z,104.28
2023-01-09T11:42:49.447Z,106.95
2023-01-09T11:48:04.089Z,99.93
2023-01-09T11:59:27.255Z,81.15
2023-01-09T12:05:33.093Z,90.93
2023-01-09T12:11:09.929Z,84.88
2023-01-09T12:23:19.112Z,71.28
2023-01-09T12:28:32.546Z,58.88
2023-01-09T12:33:50.413Z,56.70
2023-01-09T12:39:32.780Z,67.70
2023-01-09T12:50:14.386Z,156.57
2023-01-09T12:55:22.584Z,214.05
2023-01-09T13:00:27.600Z,235.50
2023-01-09T13:05:34.502Z,178.73
2023-01-09T13:11:27.975Z,152.60
2023-01-09T13:16:36.263Z,115.77
2023-01-09T13:21:39.663Z,124.20
2023-01-09T13:26:55.233Z,131.75
2023-01-09T13:32:24.174Z,114.68
2023-01-09T13:37:28.238Z,116.53
2023-01-09T13:42:39.214Z,91.55
2023-01-09T13:47:42.949Z,103.05
2023-01-09T13:52:46.011Z,94.07
2023-01-09T13:58:08.875Z,83.20
2023-01-09T14:03:22.464Z,77.00
2023-01-09T14:08:27.872Z,45.28
2023-01-09T14:13:41.516Z,69.80
2023-01-09T14:18:59.234Z,100.28
2023-01-09T14:24:07.382Z,99.35
2023-01-09T14:29:43.183Z,87.50
2023-01-09T14:35:11.391Z,88.28
2023-01-09T14:40:23.145Z,70.30
2023-01-09T14:45:27.632Z,109.93
2023-01-09T14:50:35.974Z,140.85
2023-01-09T14:55:55.403Z,119.70
2023-01-09T15:07:07.813Z,90.53
2023-01-09T15:12:19.500Z,58.63
2023-01-09T15:17:27.339Z,58.47
2023-01-09T15:22:35.352Z,63.88
2023-01-09T15:27:48.028Z,52.28
2023-01-09T15:32:51.843Z,50.92
2023-01-09T15:37:55.422Z,44.78
2023-01-09T15:43:01.891Z,46.65
2023-01-09T15:48:22.633Z,57.30
2023-01-09T15:53:30.100Z,68.93
2023-01-09T15:58:47.596Z,83.53
2023-01-09T16:03:50.647Z,80.05
2023-01-09T16:09:06.371Z,67.38
2023-01-09T16:14:29.108Z,79.93
2023-01-09T16:19:55.820Z,84.90
2023-01-09T16:25:28.759Z,90.10
2023-01-09T16:30:31.694Z,65.43
2023-01-09T16:35:37.241Z,80.05
2023-01-09T16:41:20.463Z,82.00
2023-01-09T16:46:23.112Z,66.80
2023-01-09T16:51:57.137Z,69.53
2023-01-09T16:57:01.094Z,103.45
2023-01-09T17:02:14.480Z,110.70
2023-01-09T17:07:37.994Z,121.18
2023-01-09T17:12:43.735Z,130.23
2023-01-09T17:17:46.406Z,137.30
2023-01-09T17:23:10.778Z,141.07
2023-01-09T17:28:34.692Z,130.32
2023-01-09T17:33:38.600Z,129.98
2023-01-09T17:44:15.901Z,107.03
2023-01-09T17:49:40.212Z,105.90
2023-01-09T17:54:51.009Z,106.90
2023-01-09T17:59:57.020Z,135.80
2023-01-09T18:05:10.113Z,142.10
2023-01-09T18:10:15.438Z,221.50
2023-01-09T18:15:18.399Z,522.38
2023-01-09T18:20:21.146Z,693.47
2023-01-09T18:25:24.020Z,534.70
2023-01-09T18:30:27.338Z,404.77
2023-01-09T18:35:31.082Z,421.88
2023-01-09T18:45:38.934Z,428.17
2023-01-09T18:51:07.746Z,298.17
2023-01-09T18:56:31.701Z,235.82
2023-01-09T19:01:34.366Z,226.65
2023-01-09T19:06:39.072Z,234.57
2023-01-09T19:16:54.639Z,206.32
2023-01-09T19:22:00.134Z,171.40
2023-01-09T19:27:09.249Z,140.02
2023-01-09T19:32:46.386Z,162.38
2023-01-09T19:38:21.646Z,158.45
2023-01-09T19:43:57.572Z,185.75
2023-01-09T19:49:07.589Z,162.43
2023-01-09T19:54:11.823Z,208.85
2023-01-09T19:59:18.980Z,266.70
2023-01-09T20:04:41.284Z,201.27
2023-01-09T20:09:44.293Z,182.77
2023-01-09T20:14:50.168Z,190.90
2023-01-09T20:31:00.122Z,179.02
2023-01-09T20:36:05.035Z,146.65
2023-01-09T20:41:22.748Z,149.43
2023-01-09T20:46:34.633Z,127.13
2023-01-09T20:51:41.865Z,116.35
2023-01-09T20:56:46.309Z,115.88
2023-01-09T21:01:49.994Z,135.83
2023-01-09T21:06:52.800Z,140.10
2023-01-09T21:11:55.336Z,179.95
2023-01-09T21:16:58.329Z,110.85
2023-01-09T21:22:01.400Z,57.53
2023-01-09T21:27:09.066Z,72.47
2023-01-09T21:32:15.308Z,77.22
2023-01-09T21:37:36.230Z,79.95
2023-01-09T21:43:10.458Z,75.03
2023-01-09T21:48:43.645Z,65.28
2023-01-09T22:00:35.273Z,81.13
2023-01-09T22:05:57.985Z,88.50
2023-01-09T22:11:33.584Z,92.55
2023-01-09T22:17:04.015Z,91.40
2023-01-09T22:22:09.270Z,121.78
2023-01-09T22:27:12.047Z,128.10
2023-01-09T22:39:07.663Z,64.43
2023-01-09T22:44:25.899Z,58.53
2023-01-09T22:49:53.343Z,48.88
2023-01-09T22:55:27.744Z,42.45
2023-01-09T23:07:49.035Z,28.73
2023-01-09T23:13:31.731Z,31.02
2023-01-09T23:19:20.249Z,30.77
2023-01-09T23:24:56.834Z,36.30
2023-01-09T23:36:26.524Z,37.25
2023-01-09T23:42:26.679Z,49.13
2023-01-09T23:53:57.927Z,58.85
2023-01-09T23:59:29.440Z,52.67
